createdAt,value
2022-11-14T10:40:20.165Z,95240.16
2022-11-14T10:43:19.339Z,95234.03
2022-11-14T10:46:18.752Z,95236.94
2022-11-14T10:49:16.219Z,95238.84
2022-11-14T10:52:12.848Z,95252.94
2022-11-14T10:55:03.290Z,95240.84
2022-11-14T10:57:48.614Z,95255.81
2022-11-14T11:00:33.909Z,95250.59
2022-11-14T11:03:19.413Z,95252.28
2022-11-14T11:06:04.689Z,95254.88
2022-11-14T11:09:08.561Z,95256.72
2022-11-14T11:11:59.408Z,95257.56
2022-11-14T11:14:46.218Z,95270.41
2022-11-14T11:17:37.090Z,95267.66
2022-11-14T11:20:34.643Z,95265.03
2022-11-14T11:23:26.230Z,95288.44
2022-11-14T11:26:29.657Z,95298.47
2022-11-14T11:29:19.649Z,95308.72
2022-11-14T11:32:05.042Z,95315.31
2022-11-14T11:34:51.454Z,95316.00
2022-11-14T11:37:49.194Z,95308.28
2022-11-14T11:40:34.542Z,95309.28
2022-11-14T11:43:39.601Z,95323.22
2022-11-14T11:46:44.760Z,95329.44
2022-11-14T11:49:53.942Z,95326.22
2022-11-14T11:52:54.749Z,95331.63
2022-11-14T11:56:09.510Z,95318.09
2022-11-14T11:59:17.389Z,95317.47
2022-11-14T12:02:17.565Z,95319.91
2022-11-14T12:05:03.279Z,95320.00
2022-11-14T12:08:06.361Z,95320.44
2022-11-14T12:10:53.711Z,95317.13
2022-11-14T12:13:50.495Z,95314.19
2022-11-14T12:16:59.269Z,95309.41
2022-11-14T12:19:59.539Z,95313.41
2022-11-14T12:23:07.383Z,95308.88
2022-11-14T12:26:26.392Z,95316.16
2022-11-14T12:29:46.598Z,95313.91
2022-11-14T12:32:39.130Z,95322.31
2022-11-14T12:35:30.542Z,95322.97
2022-11-14T12:38:19.472Z,95326.31
2022-11-14T12:41:07.420Z,95325.59
2022-11-14T12:43:53.317Z,95325.00
2022-11-14T12:47:07.096Z,95326.91
2022-11-14T12:49:52.655Z,95324.47
2022-11-14T12:52:40.680Z,95322.94
2022-11-14T12:55:25.611Z,95328.19
2022-11-14T12:58:17.340Z,95323.06
2022-11-14T13:01:20.045Z,95333.66
2022-11-14T13:04:42.511Z,95335.41
2022-11-14T13:08:05.773Z,95346.59
2022-11-14T13:10:51.317Z,95332.13
2022-11-14T13:14:18.903Z,95330.78
2022-11-14T13:17:35.014Z,95331.59
2022-11-14T13:20:51.795Z,95336.63
2022-11-14T13:23:43.018Z,95333.16
2022-11-14T13:26:27.854Z,95328.06
2022-11-14T13:29:41.010Z,95322.31
2022-11-14T13:32:41.163Z,95330.56
2022-11-14T13:35:33.531Z,95325.59
2022-11-14T13:38:53.872Z,95325.06
2022-11-14T13:42:30.635Z,95317.38
2022-11-14T13:45:29.832Z,95323.84
2022-11-14T13:48:26.975Z,95326.31
2022-11-14T13:51:41.797Z,95316.31
2022-11-14T13:54:21.692Z,95310.84
2022-11-14T13:57:25.860Z,95312.00
2022-11-14T14:00:20.676Z,95314.25
2022-11-14T14:03:25.005Z,95311.84
2022-11-14T14:06:42.237Z,95313.94
2022-11-14T14:09:48.454Z,95310.66
2022-11-14T14:13:16.616Z,95311.91
2022-11-14T14:16:23.642Z,95313.34
2022-11-14T14:19:51.681Z,95310.78
2022-11-14T14:22:55.792Z,95305.47
2022-11-14T14:25:49.408Z,95307.19
2022-11-14T14:29:10.527Z,95306.28
2022-11-14T14:32:10.573Z,95306.84
2022-11-14T14:34:58.619Z,95307.69
2022-11-14T14:37:51.901Z,95306.09
2022-11-14T14:40:40.370Z,95310.56
2022-11-14T14:43:33.299Z,95307.50
2022-11-14T14:46:33.324Z,95313.81
2022-11-14T14:49:24.140Z,95317.00
2022-11-14T14:52:29.384Z,95311.88
2022-11-14T14:55:38.808Z,95318.47
2022-11-14T14:58:26.821Z,95313.66
2022-11-14T15:01:32.397Z,95314.97
2022-11-14T15:04:20.525Z,95311.66
2022-11-14T15:07:05.663Z,95306.81
2022-11-14T15:09:59.467Z,95309.13
2022-11-14T15:12:45.213Z,95307.84
2022-11-14T15:15:31.010Z,95306.66
2022-11-14T15:18:25.288Z,95308.81
2022-11-14T15:21:23.291Z,95310.09
2022-11-14T15:24:20.053Z,95307.81
2022-11-14T15:27:11.808Z,95306.78
2022-11-14T15:30:02.206Z,95304.22
2022-11-14T15:32:52.944Z,95310.94
2022-11-14T15:35:39.483Z,95310.59
2022-11-14T15:41:33.943Z,95309.44
2022-11-14T15:44:33.215Z,95307.81
2022-11-14T15:47:36.838Z,95301.03
2022-11-14T15:50:28.376Z,95305.22
2022-11-14T15:53:25.788Z,95308.88
2022-11-14T15:56:13.169Z,95309.69
2022-11-14T15:58:58.768Z,95306.41
2022-11-14T16:01:46.850Z,95300.13
2022-11-14T16:04:35.571Z,95298.75
2022-11-14T16:07:21.141Z,95295.56
2022-11-14T16:10:14.775Z,95298.94
2022-11-14T16:13:00.178Z,95302.00
2022-11-14T16:15:45.564Z,95305.09
2022-11-14T16:18:30.891Z,95303.47
2022-11-14T16:21:18.247Z,95305.34
2022-11-14T16:24:04.131Z,95308.53
2022-11-14T16:26:50.025Z,95308.53
2022-11-14T16:29:35.515Z,95308.25
2022-11-14T16:32:20.883Z,95310.25
2022-11-14T16:35:13.645Z,95312.72
2022-11-14T16:37:58.763Z,95312.63
2022-11-14T16:40:44.515Z,95313.78
2022-11-14T16:43:29.851Z,95303.69
2022-11-14T16:46:15.550Z,95312.00
2022-11-14T16:49:00.911Z,95320.34
2022-11-14T16:51:50.884Z,95325.97
2022-11-14T16:54:36.598Z,95316.16
2022-11-14T16:57:22.591Z,95321.88
2022-11-14T17:00:10.606Z,95316.50
2022-11-14T17:02:55.860Z,95317.97
2022-11-14T17:05:49.927Z,95313.84
2022-11-14T17:08:35.232Z,95320.19
2022-11-14T17:11:20.804Z,95322.84
2022-11-14T17:14:05.897Z,95323.91
2022-11-14T17:16:51.064Z,95322.91
2022-11-14T17:19:38.858Z,95318.69
2022-11-14T17:22:24.500Z,95320.22
2022-11-14T17:25:10.345Z,95320.69
2022-11-14T17:27:55.711Z,95316.81
2022-11-14T17:30:41.628Z,95325.19
2022-11-14T17:33:26.948Z,95306.84
2022-11-14T17:36:12.465Z,95314.31
2022-11-14T17:38:58.701Z,95307.22
2022-11-14T17:41:44.181Z,95314.44
2022-11-14T17:44:29.696Z,95308.94
2022-11-14T17:47:15.342Z,95313.41
2022-11-14T17:50:00.435Z,95312.91
2022-11-14T17:52:45.615Z,95315.41
2022-11-14T17:55:31.068Z,95310.47
2022-11-14T17:58:16.318Z,95309.13
2022-11-14T18:01:01.643Z,95307.94
2022-11-14T18:03:47.064Z,95298.78
2022-11-14T18:06:33.485Z,95302.91
2022-11-14T18:09:18.994Z,95305.38
2022-11-14T18:12:04.704Z,95309.16
2022-11-14T18:14:49.805Z,95310.31
2022-11-14T18:17:35.024Z,95304.25
2022-11-14T18:20:20.418Z,95315.59
2022-11-14T18:23:05.954Z,95311.50
2022-11-14T18:25:51.395Z,95311.38
2022-11-14T18:28:37.053Z,95308.75
2022-11-14T18:31:22.732Z,95309.25
2022-11-14T18:34:07.703Z,95322.38
2022-11-14T18:36:53.038Z,95324.50
2022-11-14T18:39:38.325Z,95317.13
2022-11-14T18:42:23.796Z,95316.63
2022-11-14T18:45:09.239Z,95318.28
2022-11-14T18:47:54.413Z,95305.78
2022-11-14T18:50:39.564Z,95309.91
2022-11-14T18:53:24.837Z,95311.38
2022-11-14T18:56:12.359Z,95316.94
2022-11-14T18:58:57.865Z,95321.88
2022-11-14T19:01:43.599Z,95317.63
2022-11-14T19:04:28.768Z,95314.00
2022-11-14T19:07:15.113Z,95312.50
2022-11-14T19:10:00.434Z,95315.13
2022-11-14T19:12:48.889Z,95310.66
2022-11-14T19:15:34.242Z,95314.44
2022-11-14T19:18:19.539Z,95310.50
2022-11-14T19:21:06.019Z,95322.44
2022-11-14T19:23:51.239Z,95317.38
2022-11-14T19:26:36.521Z,95317.22
2022-11-14T19:29:21.662Z,95319.69
2022-11-14T19:32:07.807Z,95320.41
2022-11-14T19:34:52.856Z,95323.00
2022-11-14T19:37:38.455Z,95317.53
2022-11-14T19:40:23.817Z,95314.84
2022-11-14T19:43:11.564Z,95320.28
2022-11-14T19:46:02.025Z,95330.19
2022-11-14T19:48:48.013Z,95318.06
2022-11-14T19:51:33.943Z,95325.66
2022-11-14T19:54:19.318Z,95321.59
2022-11-14T19:57:04.643Z,95319.50
2022-11-14T19:59:50.018Z,95312.38
2022-11-14T20:02:39.425Z,95313.50
2022-11-14T20:05:24.706Z,95303.78
2022-11-14T20:08:09.899Z,95312.63
2022-11-14T20:11:02.955Z,95308.72
2022-11-14T20:13:49.123Z,95308.00
2022-11-14T20:16:36.269Z,95304.78
2022-11-14T20:19:21.795Z,95310.78
2022-11-14T20:22:07.303Z,95311.53
2022-11-14T20:24:52.485Z,95312.25
2022-11-14T20:27:38.204Z,95297.41
2022-11-14T20:30:24.051Z,95305.78
2022-11-14T20:33:09.534Z,95305.91
2022-11-14T20:35:54.778Z,95303.88
2022-11-14T20:38:40.442Z,95307.63
2022-11-14T20:41:25.663Z,95309.72
2022-11-14T20:44:10.898Z,95304.97
2022-11-14T20:46:56.948Z,95298.13
2022-11-14T20:49:43.348Z,95292.69
2022-11-14T20:52:28.627Z,95298.94
2022-11-14T20:55:15.587Z,95292.06
2022-11-14T20:58:00.744Z,95292.47
2022-11-14T21:00:46.063Z,95284.25
2022-11-14T21:03:31.829Z,95284.41
2022-11-14T21:06:17.385Z,95279.19
2022-11-14T21:09:02.728Z,95279.47
2022-11-14T21:11:47.961Z,95283.31
2022-11-14T21:14:34.095Z,95281.38
2022-11-14T21:17:19.500Z,95276.69
2022-11-14T21:20:05.642Z,95280.78
2022-11-14T21:22:50.707Z,95274.94
2022-11-14T21:25:36.050Z,95273.16
2022-11-14T21:28:21.440Z,95269.09
2022-11-14T21:31:46.059Z,95267.28
2022-11-14T21:34:31.507Z,95255.13
2022-11-14T21:37:16.506Z,95259.25
2022-11-14T21:40:01.780Z,95253.19
2022-11-14T21:42:47.038Z,95257.44
2022-11-14T21:45:32.304Z,95248.88
2022-11-14T21:48:17.746Z,95247.22
2022-11-14T21:51:15.124Z,95247.22
2022-11-14T21:54:02.736Z,95250.16
2022-11-14T21:56:48.090Z,95236.59
2022-11-14T21:59:33.502Z,95243.47
2022-11-14T22:02:47.905Z,95244.59
2022-11-14T22:05:33.098Z,95246.59
2022-11-14T22:08:18.353Z,95245.03
2022-11-14T22:11:03.418Z,95251.88
2022-11-14T22:13:49.349Z,95250.03
2022-11-14T22:16:35.141Z,95252.81
2022-11-14T22:19:20.551Z,95249.84
2022-11-14T22:22:05.579Z,95247.78
2022-11-14T22:24:50.861Z,95248.06
2022-11-14T22:27:36.232Z,95245.63
2022-11-14T22:30:21.471Z,95249.91
2022-11-14T22:33:07.087Z,95245.69
2022-11-14T22:35:52.108Z,95242.25
2022-11-14T22:38:38.064Z,95238.19
2022-11-14T22:41:33.621Z,95245.97
2022-11-14T22:44:19.162Z,95245.50
2022-11-14T22:47:04.347Z,95240.44
2022-11-14T22:49:49.744Z,95241.16
2022-11-14T22:52:34.878Z,95240.75
2022-11-14T22:55:20.175Z,95243.88
2022-11-14T22:58:05.584Z,95239.97
2022-11-14T23:00:51.349Z,95237.06
2022-11-14T23:03:37.085Z,95244.38
2022-11-14T23:06:23.595Z,95232.81
2022-11-14T23:09:09.170Z,95246.69
2022-11-14T23:11:54.423Z,95249.59
2022-11-14T23:14:39.637Z,95240.75
2022-11-14T23:17:25.069Z,95245.03
2022-11-14T23:20:16.049Z,95241.41
2022-11-14T23:23:02.008Z,95233.25
2022-11-14T23:25:47.169Z,95238.13
2022-11-14T23:28:32.888Z,95235.41
2022-11-14T23:31:19.040Z,95230.47
2022-11-14T23:34:04.054Z,95231.53
2022-11-14T23:36:49.279Z,95233.06
2022-11-14T23:39:34.663Z,95230.09
2022-11-14T23:42:19.957Z,95228.31
2022-11-14T23:45:05.588Z,95231.38
2022-11-14T23:47:50.760Z,95232.06
2022-11-14T23:50:36.073Z,95223.38
2022-11-14T23:53:22.215Z,95224.06
2022-11-14T23:56:10.751Z,95216.94
2022-11-14T23:58:55.750Z,95219.16
